sensor_id;sensor_type;location;lat;lon;timestamp;temperature;humidity
74968;SHT30;63523;51.880;12.630;2022-11-20T00:00:55;0.09;76.69
74968;SHT30;63523;51.880;12.630;2022-11-20T00:03:21;0.13;76.46
74968;SHT30;63523;51.880;12.630;2022-11-20T00:05:47;0.11;76.68
74968;SHT30;63523;51.880;12.630;2022-11-20T00:08:15;0.14;76.22
74968;SHT30;63523;51.880;12.630;2022-11-20T00:10:41;0.11;76.23
74968;SHT30;63523;51.880;12.630;2022-11-20T00:13:07;0.10;76.35
74968;SHT30;63523;51.880;12.630;2022-11-20T00:15:33;0.11;76.16
74968;SHT30;63523;51.880;12.630;2022-11-20T00:17:59;0.17;75.00
74968;SHT30;63523;51.880;12.630;2022-11-20T00:20:25;0.16;75.95
74968;SHT30;63523;51.880;12.630;2022-11-20T00:22:51;0.14;75.78
74968;SHT30;63523;51.880;12.630;2022-11-20T00:25:16;0.16;75.94
74968;SHT30;63523;51.880;12.630;2022-11-20T00:27:42;0.16;75.04
74968;SHT30;63523;51.880;12.630;2022-11-20T00:30:08;0.13;75.59
74968;SHT30;63523;51.880;12.630;2022-11-20T00:32:34;0.18;75.48
74968;SHT30;63523;51.880;12.630;2022-11-20T00:35:00;0.23;74.97
74968;SHT30;63523;51.880;12.630;2022-11-20T00:37:25;0.18;75.05
74968;SHT30;63523;51.880;12.630;2022-11-20T00:39:51;0.25;74.54
74968;SHT30;63523;51.880;12.630;2022-11-20T00:42:17;0.21;74.31
74968;SHT30;63523;51.880;12.630;2022-11-20T00:44:42;0.16;74.92
74968;SHT30;63523;51.880;12.630;2022-11-20T00:47:08;0.25;74.21
74968;SHT30;63523;51.880;12.630;2022-11-20T00:49:33;0.33;73.49
74968;SHT30;63523;51.880;12.630;2022-11-20T00:51:58;0.17;74.15
74968;SHT30;63523;51.880;12.630;2022-11-20T00:54:24;0.11;74.96
74968;SHT30;63523;51.880;12.630;2022-11-20T00:56:49;0.10;74.73
74968;SHT30;63523;51.880;12.630;2022-11-20T00:59:17;0.14;74.51
74968;SHT30;63523;51.880;12.630;2022-11-20T01:01:43;0.17;74.43
74968;SHT30;63523;51.880;12.630;2022-11-20T01:04:08;0.16;74.78
74968;SHT30;63523;51.880;12.630;2022-11-20T01:06:36;0.14;75.51
74968;SHT30;63523;51.880;12.630;2022-11-20T01:09:11;0.06;75.90
74968;SHT30;63523;51.880;12.630;2022-11-20T01:11:40;0.07;75.51
74968;SHT30;63523;51.880;12.630;2022-11-20T01:14:09;0.03;75.78
74968;SHT30;63523;51.880;12.630;2022-11-20T01:16:38;0.10;75.57
74968;SHT30;63523;51.880;12.630;2022-11-20T01:19:05;0.11;75.71
74968;SHT30;63523;51.880;12.630;2022-11-20T01:21:36;0.10;75.82
74968;SHT30;63523;51.880;12.630;2022-11-20T01:24:02;0.02;75.81
74968;SHT30;63523;51.880;12.630;2022-11-20T01:26:30;0.03;75.97
74968;SHT30;63523;51.880;12.630;2022-11-20T01:28:57;0.02;76.27
74968;SHT30;63523;51.880;12.630;2022-11-20T01:31:28;0.05;75.82
74968;SHT30;63523;51.880;12.630;2022-11-20T01:33:56;0.05;76.43
74968;SHT30;63523;51.880;12.630;2022-11-20T01:36:24;0.00;76.77
74968;SHT30;63523;51.880;12.630;2022-11-20T01:38:54;0.07;76.18
74968;SHT30;63523;51.880;12.630;2022-11-20T01:41:21;0.05;76.08
74968;SHT30;63523;51.880;12.630;2022-11-20T01:44:05;0.03;76.41
74968;SHT30;63523;51.880;12.630;2022-11-20T01:46:36;0.00;76.19
74968;SHT30;63523;51.880;12.630;2022-11-20T01:49:15;-0.01;75.78
74968;SHT30;63523;51.880;12.630;2022-11-20T01:51:49;-0.03;75.68
74968;SHT30;63523;51.880;12.630;2022-11-20T01:54:23;-0.03;75.99
74968;SHT30;63523;51.880;12.630;2022-11-20T01:56:51;-0.08;76.02
74968;SHT30;63523;51.880;12.630;2022-11-20T01:59:23;-0.12;75.82
74968;SHT30;63523;51.880;12.630;2022-11-20T02:01:49;-0.15;75.50
74968;SHT30;63523;51.880;12.630;2022-11-20T02:04:15;-0.21;75.46
74968;SHT30;63523;51.880;12.630;2022-11-20T02:06:45;-0.28;75.33
74968;SHT30;63523;51.880;12.630;2022-11-20T02:09:13;-0.38;75.84
74968;SHT30;63523;51.880;12.630;2022-11-20T02:11:39;-0.46;76.01
74968;SHT30;63523;51.880;12.630;2022-11-20T02:14:05;-0.56;75.95
74968;SHT30;63523;51.880;12.630;2022-11-20T02:16:34;-0.57;76.05
74968;SHT30;63523;51.880;12.630;2022-11-20T02:19:02;-0.52;74.72
74968;SHT30;63523;51.880;12.630;2022-11-20T02:24:19;-0.63;76.48
74968;SHT30;63523;51.880;12.630;2022-11-20T02:26:51;-0.67;76.04
74968;SHT30;63523;51.880;12.630;2022-11-20T02:29:22;-0.66;75.59
74968;SHT30;63523;51.880;12.630;2022-11-20T02:31:48;-0.70;75.27
74968;SHT30;63523;51.880;12.630;2022-11-20T02:34:14;-0.77;75.24
74968;SHT30;63523;51.880;12.630;2022-11-20T02:36:41;-0.81;76.06
74968;SHT30;63523;51.880;12.630;2022-11-20T02:39:09;-0.86;76.17
74968;SHT30;63523;51.880;12.630;2022-11-20T02:41:37;-0.94;76.19
74968;SHT30;63523;51.880;12.630;2022-11-20T02:44:03;-0.98;75.63
74968;SHT30;63523;51.880;12.630;2022-11-20T02:46:30;-1.04;76.12
74968;SHT30;63523;51.880;12.630;2022-11-20T02:48:56;-1.08;77.07
74968;SHT30;63523;51.880;12.630;2022-11-20T02:51:21;-1.16;76.44
74968;SHT30;63523;51.880;12.630;2022-11-20T02:53:47;-1.22;76.83
74968;SHT30;63523;51.880;12.630;2022-11-20T02:56:12;-1.25;76.33
74968;SHT30;63523;51.880;12.630;2022-11-20T02:58:38;-1.28;76.58
74968;SHT30;63523;51.880;12.630;2022-11-20T03:01:03;-1.35;76.89
74968;SHT30;63523;51.880;12.630;2022-11-20T03:03:29;-1.38;76.92
74968;SHT30;63523;51.880;12.630;2022-11-20T03:05:54;-1.43;77.27
74968;SHT30;63523;51.880;12.630;2022-11-20T03:08:20;-1.48;77.31
74968;SHT30;63523;51.880;12.630;2022-11-20T03:10:45;-1.50;77.94
74968;SHT30;63523;51.880;12.630;2022-11-20T03:13:11;-1.52;77.64
74968;SHT30;63523;51.880;12.630;2022-11-20T03:15:37;-1.53;77.57
74968;SHT30;63523;51.880;12.630;2022-11-20T03:18:03;-1.53;77.41
74968;SHT30;63523;51.880;12.630;2022-11-20T03:20:29;-1.59;78.00
74968;SHT30;63523;51.880;12.630;2022-11-20T03:22:55;-1.62;78.91
74968;SHT30;63523;51.880;12.630;2022-11-20T03:25:21;-1.63;78.82
74968;SHT30;63523;51.880;12.630;2022-11-20T03:27:46;-1.67;78.36
74968;SHT30;63523;51.880;12.630;2022-11-20T03:30:13;-1.71;78.74
74968;SHT30;63523;51.880;12.630;2022-11-20T03:32:38;-1.74;78.65
74968;SHT30;63523;51.880;12.630;2022-11-20T03:35:04;-1.77;79.06
74968;SHT30;63523;51.880;12.630;2022-11-20T03:37:31;-1.78;80.07
74968;SHT30;63523;51.880;12.630;2022-11-20T03:39:57;-1.80;79.77
74968;SHT30;63523;51.880;12.630;2022-11-20T03:42:22;-1.78;79.88
74968;SHT30;63523;51.880;12.630;2022-11-20T03:45:07;-1.78;79.39
74968;SHT30;63523;51.880;12.630;2022-11-20T03:47:32;-1.78;79.42
74968;SHT30;63523;51.880;12.630;2022-11-20T03:49:58;-1.77;79.69
74968;SHT30;63523;51.880;12.630;2022-11-20T03:52:23;-1.76;79.96
74968;SHT30;63523;51.880;12.630;2022-11-20T03:54:49;-1.74;79.93
74968;SHT30;63523;51.880;12.630;2022-11-20T03:57:14;-1.74;80.21
74968;SHT30;63523;51.880;12.630;2022-11-20T03:59:40;-1.76;80.45
74968;SHT30;63523;51.880;12.630;2022-11-20T04:02:05;-1.73;80.54
74968;SHT30;63523;51.880;12.630;2022-11-20T04:04:31;-1.73;80.89
74968;SHT30;63523;51.880;12.630;2022-11-20T04:06:56;-1.73;81.05
74968;SHT30;63523;51.880;12.630;2022-11-20T04:09:22;-1.70;81.23
74968;SHT30;63523;51.880;12.630;2022-11-20T04:11:47;-1.68;81.43
74968;SHT30;63523;51.880;12.630;2022-11-20T04:14:14;-1.64;81.24
74968;SHT30;63523;51.880;12.630;2022-11-20T04:16:40;-1.64;81.43
74968;SHT30;63523;51.880;12.630;2022-11-20T04:19:10;-1.63;81.21
74968;SHT30;63523;51.880;12.630;2022-11-20T04:21:36;-1.60;81.39
74968;SHT30;63523;51.880;12.630;2022-11-20T04:24:01;-1.60;81.59
74968;SHT30;63523;51.880;12.630;2022-11-20T04:26:28;-1.62;81.60
74968;SHT30;63523;51.880;12.630;2022-11-20T04:28:54;-1.60;81.43
74968;SHT30;63523;51.880;12.630;2022-11-20T04:31:25;-1.62;81.84
74968;SHT30;63523;51.880;12.630;2022-11-20T04:33:51;-1.56;81.59
74968;SHT30;63523;51.880;12.630;2022-11-20T04:36:21;-1.50;81.58
74968;SHT30;63523;51.880;12.630;2022-11-20T04:38:51;-1.53;81.91
74968;SHT30;63523;51.880;12.630;2022-11-20T04:41:19;-1.53;81.75
74968;SHT30;63523;51.880;12.630;2022-11-20T04:43:52;-1.49;81.65
74968;SHT30;63523;51.880;12.630;2022-11-20T04:46:20;-1.49;81.33
74968;SHT30;63523;51.880;12.630;2022-11-20T04:48:46;-1.49;81.21
74968;SHT30;63523;51.880;12.630;2022-11-20T04:51:12;-1.49;81.58
74968;SHT30;63523;51.880;12.630;2022-11-20T04:53:38;-1.49;81.33
74968;SHT30;63523;51.880;12.630;2022-11-20T04:56:05;-1.49;81.34
74968;SHT30;63523;51.880;12.630;2022-11-20T04:58:32;-1.48;81.07
74968;SHT30;63523;51.880;12.630;2022-11-20T05:03:28;-1.53;81.35
74968;SHT30;63523;51.880;12.630;2022-11-20T05:05:53;-1.59;82.09
74968;SHT30;63523;51.880;12.630;2022-11-20T05:08:19;-1.59;81.75
74968;SHT30;63523;51.880;12.630;2022-11-20T05:10:44;-1.62;81.97
74968;SHT30;63523;51.880;12.630;2022-11-20T05:13:10;-1.63;81.96
74968;SHT30;63523;51.880;12.630;2022-11-20T05:15:35;-1.68;82.30
74968;SHT30;63523;51.880;12.630;2022-11-20T05:18:02;-1.73;82.51
74968;SHT30;63523;51.880;12.630;2022-11-20T05:20:27;-1.73;82.57
74968;SHT30;63523;51.880;12.630;2022-11-20T05:22:56;-1.74;82.78
74968;SHT30;63523;51.880;12.630;2022-11-20T05:25:22;-1.74;82.69
74968;SHT30;63523;51.880;12.630;2022-11-20T05:27:48;-1.78;82.52
74968;SHT30;63523;51.880;12.630;2022-11-20T05:30:13;-1.68;82.00
74968;SHT30;63523;51.880;12.630;2022-11-20T05:32:39;-1.66;81.79
74968;SHT30;63523;51.880;12.630;2022-11-20T05:35:05;-1.77;82.30
74968;SHT30;63523;51.880;12.630;2022-11-20T05:37:31;-1.81;82.89
74968;SHT30;63523;51.880;12.630;2022-11-20T05:39:56;-1.83;82.54
74968;SHT30;63523;51.880;12.630;2022-11-20T05:42:21;-1.84;82.44
74968;SHT30;63523;51.880;12.630;2022-11-20T05:44:57;-1.90;82.86
74968;SHT30;63523;51.880;12.630;2022-11-20T05:47:23;-1.90;83.02
74968;SHT30;63523;51.880;12.630;2022-11-20T05:49:48;-1.90;82.69
74968;SHT30;63523;51.880;12.630;2022-11-20T05:52:14;-1.85;82.40
74968;SHT30;63523;51.880;12.630;2022-11-20T05:54:39;-1.93;82.51
74968;SHT30;63523;51.880;12.630;2022-11-20T05:57:05;-1.94;82.83
74968;SHT30;63523;51.880;12.630;2022-11-20T05:59:30;-1.95;82.58
74968;SHT30;63523;51.880;12.630;2022-11-20T06:01:56;-1.98;82.70
74968;SHT30;63523;51.880;12.630;2022-11-20T06:04:21;-2.02;82.48
74968;SHT30;63523;51.880;12.630;2022-11-20T06:06:47;-2.08;82.68
74968;SHT30;63523;51.880;12.630;2022-11-20T06:09:12;-2.05;82.27
74968;SHT30;63523;51.880;12.630;2022-11-20T06:11:38;-2.06;82.47
74968;SHT30;63523;51.880;12.630;2022-11-20T06:14:03;-2.06;82.20
74968;SHT30;63523;51.880;12.630;2022-11-20T06:16:29;-2.09;82.66
74968;SHT30;63523;51.880;12.630;2022-11-20T06:18:54;-2.16;82.89
74968;SHT30;63523;51.880;12.630;2022-11-20T06:21:21;-2.15;82.92
74968;SHT30;63523;51.880;12.630;2022-11-20T06:23:48;-2.14;83.19
74968;SHT30;63523;51.880;12.630;2022-11-20T06:26:22;-2.15;83.01
74968;SHT30;63523;51.880;12.630;2022-11-20T06:28:48;-2.15;83.01
74968;SHT30;63523;51.880;12.630;2022-11-20T06:31:16;-2.19;83.41
74968;SHT30;63523;51.880;12.630;2022-11-20T06:33:43;-2.19;83.53
74968;SHT30;63523;51.880;12.630;2022-11-20T06:36:09;-2.19;83.69
74968;SHT30;63523;51.880;12.630;2022-11-20T06:38:35;-2.19;83.31
74968;SHT30;63523;51.880;12.630;2022-11-20T06:41:01;-2.15;83.11
74968;SHT30;63523;51.880;12.630;2022-11-20T06:43:28;-2.18;83.61
74968;SHT30;63523;51.880;12.630;2022-11-20T06:45:56;-2.18;83.92
74968;SHT30;63523;51.880;12.630;2022-11-20T06:48:23;-2.18;83.86
74968;SHT30;63523;51.880;12.630;2022-11-20T06:50:48;-2.18;83.74
74968;SHT30;63523;51.880;12.630;2022-11-20T06:53:14;-2.18;83.88
74968;SHT30;63523;51.880;12.630;2022-11-20T06:55:47;-2.16;83.48
74968;SHT30;63523;51.880;12.630;2022-11-20T06:58:13;-2.15;83.49
74968;SHT30;63523;51.880;12.630;2022-11-20T07:00:39;-2.11;83.38
74968;SHT30;63523;51.880;12.630;2022-11-20T07:03:06;-2.09;83.29
74968;SHT30;63523;51.880;12.630;2022-11-20T07:05:33;-2.11;83.00
74968;SHT30;63523;51.880;12.630;2022-11-20T07:07:59;-2.11;83.24
74968;SHT30;63523;51.880;12.630;2022-11-20T07:10:25;-2.04;82.50
74968;SHT30;63523;51.880;12.630;2022-11-20T07:12:52;-2.08;82.91
74968;SHT30;63523;51.880;12.630;2022-11-20T07:15:18;-2.08;82.83
74968;SHT30;63523;51.880;12.630;2022-11-20T07:17:44;-2.02;82.40
74968;SHT30;63523;51.880;12.630;2022-11-20T07:20:10;-2.08;82.38
74968;SHT30;63523;51.880;12.630;2022-11-20T07:22:36;-2.09;82.33
74968;SHT30;63523;51.880;12.630;2022-11-20T07:25:01;-2.15;82.82
74968;SHT30;63523;51.880;12.630;2022-11-20T07:27:27;-2.14;82.65
74968;SHT30;63523;51.880;12.630;2022-11-20T07:29:53;-2.11;82.96
74968;SHT30;63523;51.880;12.630;2022-11-20T07:32:19;-1.97;82.13
74968;SHT30;63523;51.880;12.630;2022-11-20T07:34:44;-1.87;81.26
74968;SHT30;63523;51.880;12.630;2022-11-20T07:37:10;-1.81;81.61
74968;SHT30;63523;51.880;12.630;2022-11-20T07:39:35;-1.67;81.54
74968;SHT30;63523;51.880;12.630;2022-11-20T07:42:01;-1.64;80.76
74968;SHT30;63523;51.880;12.630;2022-11-20T07:44:26;-1.56;80.95
74968;SHT30;63523;51.880;12.630;2022-11-20T07:46:52;-1.46;80.21
74968;SHT30;63523;51.880;12.630;2022-11-20T07:49:17;-1.43;80.52
74968;SHT30;63523;51.880;12.630;2022-11-20T07:51:43;-1.34;80.01
74968;SHT30;63523;51.880;12.630;2022-11-20T07:54:08;-1.24;80.04
74968;SHT30;63523;51.880;12.630;2022-11-20T07:56:34;-1.07;79.70
74968;SHT30;63523;51.880;12.630;2022-11-20T07:58:59;-1.07;78.78
74968;SHT30;63523;51.880;12.630;2022-11-20T08:01:25;-1.14;79.14
74968;SHT30;63523;51.880;12.630;2022-11-20T08:03:50;-1.05;78.71
74968;SHT30;63523;51.880;12.630;2022-11-20T08:06:16;-0.97;78.89
74968;SHT30;63523;51.880;12.630;2022-11-20T08:08:42;-0.91;78.62
74968;SHT30;63523;51.880;12.630;2022-11-20T08:11:08;-0.88;78.50
74968;SHT30;63523;51.880;12.630;2022-11-20T08:13:52;-0.97;79.11
74968;SHT30;63523;51.880;12.630;2022-11-20T08:16:36;-0.88;78.58
74968;SHT30;63523;51.880;12.630;2022-11-20T08:19:01;-0.87;78.00
74968;SHT30;63523;51.880;12.630;2022-11-20T08:21:27;-0.84;78.03
74968;SHT30;63523;51.880;12.630;2022-11-20T08:23:52;-0.94;78.57
74968;SHT30;63523;51.880;12.630;2022-11-20T08:26:18;-1.03;79.04
74968;SHT30;63523;51.880;12.630;2022-11-20T08:28:43;-1.14;79.46
74968;SHT30;63523;51.880;12.630;2022-11-20T08:31:09;-1.21;79.93
74968;SHT30;63523;51.880;12.630;2022-11-20T08:33:35;-1.18;80.01
74968;SHT30;63523;51.880;12.630;2022-11-20T08:36:02;-1.21;79.50
74968;SHT30;63523;51.880;12.630;2022-11-20T08:38:28;-1.25;80.32
74968;SHT30;63523;51.880;12.630;2022-11-20T08:40:58;-1.22;80.63
74968;SHT30;63523;51.880;12.630;2022-11-20T08:43:42;-1.14;80.82
74968;SHT30;63523;51.880;12.630;2022-11-20T08:46:07;-1.09;80.76
74968;SHT30;63523;51.880;12.630;2022-11-20T08:48:33;-0.94;80.23
74968;SHT30;63523;51.880;12.630;2022-11-20T08:50:59;-0.81;79.40
74968;SHT30;63523;51.880;12.630;2022-11-20T08:53:25;-0.67;78.40
74968;SHT30;63523;51.880;12.630;2022-11-20T08:55:50;-0.66;78.50
74968;SHT30;63523;51.880;12.630;2022-11-20T08:58:16;-0.62;78.01
74968;SHT30;63523;51.880;12.630;2022-11-20T09:00:41;-0.53;77.79
74968;SHT30;63523;51.880;12.630;2022-11-20T09:03:07;-0.55;77.96
74968;SHT30;63523;51.880;12.630;2022-11-20T09:05:32;-0.45;77.31
74968;SHT30;63523;51.880;12.630;2022-11-20T09:07:59;-0.48;78.33
74968;SHT30;63523;51.880;12.630;2022-11-20T09:10:25;-0.45;77.94
74968;SHT30;63523;51.880;12.630;2022-11-20T09:12:51;-0.29;77.71
74968;SHT30;63523;51.880;12.630;2022-11-20T09:15:17;-0.22;77.50
74968;SHT30;63523;51.880;12.630;2022-11-20T09:17:53;-0.14;77.68
74968;SHT30;63523;51.880;12.630;2022-11-20T09:20:20;0.05;77.34
74968;SHT30;63523;51.880;12.630;2022-11-20T09:22:45;0.24;74.75
74968;SHT30;63523;51.880;12.630;2022-11-20T09:25:11;0.28;74.43
74968;SHT30;63523;51.880;12.630;2022-11-20T09:27:37;0.44;73.85
74968;SHT30;63523;51.880;12.630;2022-11-20T09:30:03;0.62;73.10
74968;SHT30;63523;51.880;12.630;2022-11-20T09:32:29;0.58;73.34
74968;SHT30;63523;51.880;12.630;2022-11-20T09:34:54;0.62;73.04
74968;SHT30;63523;51.880;12.630;2022-11-20T09:37:20;0.51;73.54
74968;SHT30;63523;51.880;12.630;2022-11-20T09:39:45;0.47;74.46
74968;SHT30;63523;51.880;12.630;2022-11-20T09:42:21;0.61;74.39
74968;SHT30;63523;51.880;12.630;2022-11-20T09:54:25;1.26;72.01
74968;SHT30;63523;51.880;12.630;2022-11-20T09:57:11;1.41;71.02
74968;SHT30;63523;51.880;12.630;2022-11-20T09:59:59;1.55;70.28
74968;SHT30;63523;51.880;12.630;2022-11-20T10:05:58;1.80;68.58
74968;SHT30;63523;51.880;12.630;2022-11-20T10:29:14;2.40;67.16
74968;SHT30;63523;51.880;12.630;2022-11-20T10:31:43;2.35;66.67
74968;SHT30;63523;51.880;12.630;2022-11-20T10:34:20;2.30;67.75
74968;SHT30;63523;51.880;12.630;2022-11-20T10:36:54;2.21;68.26
74968;SHT30;63523;51.880;12.630;2022-11-20T10:39:44;2.20;69.25
74968;SHT30;63523;51.880;12.630;2022-11-20T10:42:17;2.25;68.50
74968;SHT30;63523;51.880;12.630;2022-11-20T10:44:51;2.28;67.68
74968;SHT30;63523;51.880;12.630;2022-11-20T10:47:27;2.33;66.83
74968;SHT30;63523;51.880;12.630;2022-11-20T10:49:55;2.24;68.59
74968;SHT30;63523;51.880;12.630;2022-11-20T10:55:28;2.06;66.31
74968;SHT30;63523;51.880;12.630;2022-11-20T11:00:37;1.95;66.65
74968;SHT30;63523;51.880;12.630;2022-11-20T11:03:27;2.16;65.47
74968;SHT30;63523;51.880;12.630;2022-11-20T11:08:48;2.07;66.33
74968;SHT30;63523;51.880;12.630;2022-11-20T11:11:24;2.17;65.82
74968;SHT30;63523;51.880;12.630;2022-11-20T11:13:50;2.28;65.80
74968;SHT30;63523;51.880;12.630;2022-11-20T11:16:21;2.34;66.06
74968;SHT30;63523;51.880;12.630;2022-11-20T11:18:47;2.28;66.60
74968;SHT30;63523;51.880;12.630;2022-11-20T11:21:13;2.35;65.92
74968;SHT30;63523;51.880;12.630;2022-11-20T11:23:39;2.37;66.49
74968;SHT30;63523;51.880;12.630;2022-11-20T11:26:07;2.40;66.03
74968;SHT30;63523;51.880;12.630;2022-11-20T11:31:34;2.34;64.20
74968;SHT30;63523;51.880;12.630;2022-11-20T11:34:14;2.23;65.56
74968;SHT30;63523;51.880;12.630;2022-11-20T11:36:41;2.31;64.63
74968;SHT30;63523;51.880;12.630;2022-11-20T11:39:18;2.23;65.77
74968;SHT30;63523;51.880;12.630;2022-11-20T11:41:45;2.34;64.86
74968;SHT30;63523;51.880;12.630;2022-11-20T11:44:18;2.27;64.91
74968;SHT30;63523;51.880;12.630;2022-11-20T11:47:04;2.25;63.93
74968;SHT30;63523;51.880;12.630;2022-11-20T11:49:31;2.30;63.79
74968;SHT30;63523;51.880;12.630;2022-11-20T12:00:08;2.55;63.65
74968;SHT30;63523;51.880;12.630;2022-11-20T12:05:34;2.97;63.52
74968;SHT30;63523;51.880;12.630;2022-11-20T12:10:47;3.31;62.26
74968;SHT30;63523;51.880;12.630;2022-11-20T12:15:44;3.76;61.52
74968;SHT30;63523;51.880;12.630;2022-11-20T12:18:21;3.76;61.19
74968;SHT30;63523;51.880;12.630;2022-11-20T12:21:28;3.90;60.27
74968;SHT30;63523;51.880;12.630;2022-11-20T12:35:00;3.32;60.89
74968;SHT30;63523;51.880;12.630;2022-11-20T12:37:36;3.11;62.40
74968;SHT30;63523;51.880;12.630;2022-11-20T12:43:04;2.85;64.37
74968;SHT30;63523;51.880;12.630;2022-11-20T12:46:22;2.92;64.15
74968;SHT30;63523;51.880;12.630;2022-11-20T12:49:06;2.87;64.74
74968;SHT30;63523;51.880;12.630;2022-11-20T12:51:50;2.87;65.42
74968;SHT30;63523;51.880;12.630;2022-11-20T13:00:17;2.75;66.13
74968;SHT30;63523;51.880;12.630;2022-11-20T13:05:55;2.68;65.83
74968;SHT30;63523;51.880;12.630;2022-11-20T13:08:29;2.62;66.62
74968;SHT30;63523;51.880;12.630;2022-11-20T13:19:17;2.78;64.83
74968;SHT30;63523;51.880;12.630;2022-11-20T13:21:45;2.82;64.74
74968;SHT30;63523;51.880;12.630;2022-11-20T13:29:35;2.93;64.26
74968;SHT30;63523;51.880;12.630;2022-11-20T13:32:21;2.90;64.79
74968;SHT30;63523;51.880;12.630;2022-11-20T13:35:02;2.96;65.13
74968;SHT30;63523;51.880;12.630;2022-11-20T13:38:07;3.07;63.45
74968;SHT30;63523;51.880;12.630;2022-11-20T13:40:36;3.13;62.87
74968;SHT30;63523;51.880;12.630;2022-11-20T13:43:15;3.08;62.67
74968;SHT30;63523;51.880;12.630;2022-11-20T13:46:03;2.96;63.79
74968;SHT30;63523;51.880;12.630;2022-11-20T13:48:38;2.90;63.49
74968;SHT30;63523;51.880;12.630;2022-11-20T13:53:46;2.71;64.84
74968;SHT30;63523;51.880;12.630;2022-11-20T14:01:29;2.34;65.86
74968;SHT30;63523;51.880;12.630;2022-11-20T14:04:05;2.21;67.05
74968;SHT30;63523;51.880;12.630;2022-11-20T14:06:42;2.17;66.41
74968;SHT30;63523;51.880;12.630;2022-11-20T14:09:29;2.13;67.26
74968;SHT30;63523;51.880;12.630;2022-11-20T14:11:55;2.04;67.72
74968;SHT30;63523;51.880;12.630;2022-11-20T14:14:24;2.02;68.00
74968;SHT30;63523;51.880;12.630;2022-11-20T14:16:51;1.95;68.28
74968;SHT30;63523;51.880;12.630;2022-11-20T14:21:53;1.95;68.94
74968;SHT30;63523;51.880;12.630;2022-11-20T14:24:21;1.83;69.27
74968;SHT30;63523;51.880;12.630;2022-11-20T14:26:48;1.78;69.85
74968;SHT30;63523;51.880;12.630;2022-11-20T14:29:17;1.72;70.74
74968;SHT30;63523;51.880;12.630;2022-11-20T14:31:48;1.62;71.10
74968;SHT30;63523;51.880;12.630;2022-11-20T14:34:19;1.58;71.32
74968;SHT30;63523;51.880;12.630;2022-11-20T14:36:45;1.50;71.68
74968;SHT30;63523;51.880;12.630;2022-11-20T14:39:12;1.45;72.39
74968;SHT30;63523;51.880;12.630;2022-11-20T14:41:51;1.44;72.87
74968;SHT30;63523;51.880;12.630;2022-11-20T14:44:17;1.45;71.85
74968;SHT30;63523;51.880;12.630;2022-11-20T14:46:43;1.40;72.86
74968;SHT30;63523;51.880;12.630;2022-11-20T14:49:10;1.37;73.09
74968;SHT30;63523;51.880;12.630;2022-11-20T14:51:38;1.37;72.49
74968;SHT30;63523;51.880;12.630;2022-11-20T14:54:11;1.37;72.55
74968;SHT30;63523;51.880;12.630;2022-11-20T14:56:37;1.35;72.28
74968;SHT30;63523;51.880;12.630;2022-11-20T14:59:03;1.28;72.67
74968;SHT30;63523;51.880;12.630;2022-11-20T15:01:30;1.23;73.06
74968;SHT30;63523;51.880;12.630;2022-11-20T15:04:07;1.16;73.09
74968;SHT30;63523;51.880;12.630;2022-11-20T15:06:34;1.07;73.05
74968;SHT30;63523;51.880;12.630;2022-11-20T15:09:12;0.96;74.14
74968;SHT30;63523;51.880;12.630;2022-11-20T15:11:38;0.89;74.55
74968;SHT30;63523;51.880;12.630;2022-11-20T15:14:05;0.88;73.98
74968;SHT30;63523;51.880;12.630;2022-11-20T15:16:31;0.86;74.01
74968;SHT30;63523;51.880;12.630;2022-11-20T15:18:57;0.86;73.91
74968;SHT30;63523;51.880;12.630;2022-11-20T15:21:26;0.85;73.98
74968;SHT30;63523;51.880;12.630;2022-11-20T15:23:51;0.83;73.84
74968;SHT30;63523;51.880;12.630;2022-11-20T15:26:25;0.75;74.30
74968;SHT30;63523;51.880;12.630;2022-11-20T15:28:52;0.65;75.05
74968;SHT30;63523;51.880;12.630;2022-11-20T15:31:20;0.59;75.12
74968;SHT30;63523;51.880;12.630;2022-11-20T15:33:46;0.58;75.28
74968;SHT30;63523;51.880;12.630;2022-11-20T15:36:12;0.55;75.05
74968;SHT30;63523;51.880;12.630;2022-11-20T15:38:38;0.48;75.52
74968;SHT30;63523;51.880;12.630;2022-11-20T15:41:04;0.40;75.93
74968;SHT30;63523;51.880;12.630;2022-11-20T15:43:29;0.31;76.39
74968;SHT30;63523;51.880;12.630;2022-11-20T15:46:06;0.21;77.23
74968;SHT30;63523;51.880;12.630;2022-11-20T15:48:40;0.13;77.96
74968;SHT30;63523;51.880;12.630;2022-11-20T15:53:35;-0.01;78.36
74968;SHT30;63523;51.880;12.630;2022-11-20T15:56:02;-0.04;78.35
74968;SHT30;63523;51.880;12.630;2022-11-20T15:58:27;-0.08;78.87
74968;SHT30;63523;51.880;12.630;2022-11-20T16:00:53;-0.14;78.82
74968;SHT30;63523;51.880;12.630;2022-11-20T16:03:19;-0.18;79.21
74968;SHT30;63523;51.880;12.630;2022-11-20T16:05:45;-0.15;79.10
74968;SHT30;63523;51.880;12.630;2022-11-20T16:08:10;-0.18;78.95
74968;SHT30;63523;51.880;12.630;2022-11-20T16:10:36;-0.14;78.57
74968;SHT30;63523;51.880;12.630;2022-11-20T16:13:02;-0.22;78.83
74968;SHT30;63523;51.880;12.630;2022-11-20T16:15:51;-0.31;79.10
74968;SHT30;63523;51.880;12.630;2022-11-20T16:18:20;-0.36;79.71
74968;SHT30;63523;51.880;12.630;2022-11-20T16:20:48;-0.38;79.63
74968;SHT30;63523;51.880;12.630;2022-11-20T16:23:14;-0.38;80.31
74968;SHT30;63523;51.880;12.630;2022-11-20T16:25:41;-0.33;80.78
74968;SHT30;63523;51.880;12.630;2022-11-20T16:28:07;-0.26;80.16
74968;SHT30;63523;51.880;12.630;2022-11-20T16:30:34;-0.18;79.86
74968;SHT30;63523;51.880;12.630;2022-11-20T16:33:00;-0.12;80.03
74968;SHT30;63523;51.880;12.630;2022-11-20T16:35:27;-0.07;80.27
74968;SHT30;63523;51.880;12.630;2022-11-20T16:37:53;-0.04;79.55
74968;SHT30;63523;51.880;12.630;2022-11-20T16:40:19;-0.03;79.45
74968;SHT30;63523;51.880;12.630;2022-11-20T16:42:45;0.00;79.75
74968;SHT30;63523;51.880;12.630;2022-11-20T16:45:10;0.05;78.64
74968;SHT30;63523;51.880;12.630;2022-11-20T16:47:36;0.06;78.57
74968;SHT30;63523;51.880;12.630;2022-11-20T16:50:03;0.07;78.80
74968;SHT30;63523;51.880;12.630;2022-11-20T16:52:30;0.05;78.35
74968;SHT30;63523;51.880;12.630;2022-11-20T16:54:55;0.00;78.75
74968;SHT30;63523;51.880;12.630;2022-11-20T16:57:21;-0.05;78.73
74968;SHT30;63523;51.880;12.630;2022-11-20T16:59:47;-0.10;79.25
74968;SHT30;63523;51.880;12.630;2022-11-20T17:02:13;-0.17;78.85
74968;SHT30;63523;51.880;12.630;2022-11-20T17:04:38;-0.25;79.35
74968;SHT30;63523;51.880;12.630;2022-11-20T17:07:06;-0.29;79.28
74968;SHT30;63523;51.880;12.630;2022-11-20T17:09:31;-0.40;79.68
74968;SHT30;63523;51.880;12.630;2022-11-20T17:11:56;-0.45;80.18
74968;SHT30;63523;51.880;12.630;2022-11-20T17:14:22;-0.55;80.59
74968;SHT30;63523;51.880;12.630;2022-11-20T17:16:47;-0.62;81.03
74968;SHT30;63523;51.880;12.630;2022-11-20T17:19:13;-0.66;81.30
74968;SHT30;63523;51.880;12.630;2022-11-20T17:21:39;-0.70;81.77
74968;SHT30;63523;51.880;12.630;2022-11-20T17:24:08;-0.76;82.14
74968;SHT30;63523;51.880;12.630;2022-11-20T17:26:35;-0.81;82.78